sensor_id;sensor_type;location;lat;lon;timestamp;P1;durP1;ratioP1;P2;durP2;ratioP2
82811;SDS011;72567;55.696;37.960;2024-01-06T00:01:14;7.65;;;4.07;;
82811;SDS011;72567;55.696;37.960;2024-01-06T00:04:15;3.63;;;2.53;;
82811;SDS011;72567;55.696;37.960;2024-01-06T00:07:15;2.10;;;0.65;;
82811;SDS011;72567;55.696;37.960;2024-01-06T00:10:16;3.13;;;1.75;;
82811;SDS011;72567;55.696;37.960;2024-01-06T00:13:18;2.70;;;2.45;;
82811;SDS011;72567;55.696;37.960;2024-01-06T00:16:19;4.05;;;2.67;;
82811;SDS011;72567;55.696;37.960;2024-01-06T00:22:20;1.70;;;1.30;;
82811;SDS011;72567;55.696;37.960;2024-01-06T00:25:21;0.88;;;0.80;;
82811;SDS011;72567;55.696;37.960;2024-01-06T00:28:21;2.13;;;1.58;;
82811;SDS011;72567;55.696;37.960;2024-01-06T00:31:22;3.25;;;2.70;;
82811;SDS011;72567;55.696;37.960;2024-01-06T00:34:22;5.18;;;1.48;;
82811;SDS011;72567;55.696;37.960;2024-01-06T00:37:23;1.40;;;1.30;;
82811;SDS011;72567;55.696;37.960;2024-01-06T00:40:23;5.68;;;4.88;;
82811;SDS011;72567;55.696;37.960;2024-01-06T00:43:24;5.05;;;3.28;;
82811;SDS011;72567;55.696;37.960;2024-01-06T00:46:24;3.45;;;2.15;;
82811;SDS011;72567;55.696;37.960;2024-01-06T00:49:25;0.22;;;0.22;;
82811;SDS011;72567;55.696;37.960;2024-01-06T00:52:26;0.40;;;0.40;;
82811;SDS011;72567;55.696;37.960;2024-01-06T00:55:26;3.92;;;2.05;;
82811;SDS011;72567;55.696;37.960;2024-01-06T00:58:27;4.18;;;2.13;;
82811;SDS011;72567;55.696;37.960;2024-01-06T01:01:27;0.70;;;0.52;;
82811;SDS011;72567;55.696;37.960;2024-01-06T01:04:28;1.40;;;1.30;;
82811;SDS011;72567;55.696;37.960;2024-01-06T01:07:28;4.10;;;1.98;;
82811;SDS011;72567;55.696;37.960;2024-01-06T01:10:29;1.80;;;1.42;;
82811;SDS011;72567;55.696;37.960;2024-01-06T01:13:29;2.58;;;2.38;;
82811;SDS011;72567;55.696;37.960;2024-01-06T01:16:30;0.35;;;0.35;;
82811;SDS011;72567;55.696;37.960;2024-01-06T01:19:32;2.65;;;1.98;;
82811;SDS011;72567;55.696;37.960;2024-01-06T01:22:33;1.63;;;1.48;;
82811;SDS011;72567;55.696;37.960;2024-01-06T01:25:33;6.15;;;1.33;;
82811;SDS011;72567;55.696;37.960;2024-01-06T01:28:34;4.90;;;2.08;;
82811;SDS011;72567;55.696;37.960;2024-01-06T01:31:35;2.33;;;0.70;;
82811;SDS011;72567;55.696;37.960;2024-01-06T01:34:35;0.57;;;0.57;;
82811;SDS011;72567;55.696;37.960;2024-01-06T01:37:36;3.35;;;1.10;;
82811;SDS011;72567;55.696;37.960;2024-01-06T01:40:36;1.23;;;1.08;;
82811;SDS011;72567;55.696;37.960;2024-01-06T01:43:37;0.35;;;0.15;;
82811;SDS011;72567;55.696;37.960;2024-01-06T01:46:38;3.08;;;1.60;;
82811;SDS011;72567;55.696;37.960;2024-01-06T01:49:39;0.60;;;0.55;;
82811;SDS011;72567;55.696;37.960;2024-01-06T01:52:40;0.73;;;0.73;;
82811;SDS011;72567;55.696;37.960;2024-01-06T01:55:42;15.23;;;3.05;;
82811;SDS011;72567;55.696;37.960;2024-01-06T01:58:44;2.53;;;1.65;;
82811;SDS011;72567;55.696;37.960;2024-01-06T02:01:44;1.30;;;0.75;;
82811;SDS011;72567;55.696;37.960;2024-01-06T02:04:45;0.10;;;0.10;;
82811;SDS011;72567;55.696;37.960;2024-01-06T02:07:47;0.20;;;0.20;;
82811;SDS011;72567;55.696;37.960;2024-01-06T02:10:47;0.60;;;0.43;;
82811;SDS011;72567;55.696;37.960;2024-01-06T02:13:48;13.35;;;4.80;;
82811;SDS011;72567;55.696;37.960;2024-01-06T02:16:49;4.90;;;0.90;;
82811;SDS011;72567;55.696;37.960;2024-01-06T02:19:50;0.60;;;0.60;;
82811;SDS011;72567;55.696;37.960;2024-01-06T02:22:50;2.65;;;1.48;;
82811;SDS011;72567;55.696;37.960;2024-01-06T02:25:51;0.80;;;0.57;;
82811;SDS011;72567;55.696;37.960;2024-01-06T02:28:51;6.72;;;3.38;;
82811;SDS011;72567;55.696;37.960;2024-01-06T02:31:52;1.83;;;1.52;;
82811;SDS011;72567;55.696;37.960;2024-01-06T02:34:52;2.35;;;1.58;;
82811;SDS011;72567;55.696;37.960;2024-01-06T02:37:53;11.88;;;7.03;;
82811;SDS011;72567;55.696;37.960;2024-01-06T02:40:53;1.83;;;1.73;;
82811;SDS011;72567;55.696;37.960;2024-01-06T02:43:54;2.15;;;0.60;;
82811;SDS011;72567;55.696;37.960;2024-01-06T02:46:56;0.55;;;0.55;;
82811;SDS011;72567;55.696;37.960;2024-01-06T02:49:57;0.90;;;0.47;;
82811;SDS011;72567;55.696;37.960;2024-01-06T02:52:57;0.17;;;0.10;;
82811;SDS011;72567;55.696;37.960;2024-01-06T02:55:58;0.73;;;0.73;;
82811;SDS011;72567;55.696;37.960;2024-01-06T02:58:58;4.63;;;2.88;;
82811;SDS011;72567;55.696;37.960;2024-01-06T03:01:59;1.08;;;0.75;;
82811;SDS011;72567;55.696;37.960;2024-01-06T03:04:59;4.57;;;1.95;;
82811;SDS011;72567;55.696;37.960;2024-01-06T03:08:00;8.57;;;2.88;;
82811;SDS011;72567;55.696;37.960;2024-01-06T03:11:01;2.38;;;0.63;;
82811;SDS011;72567;55.696;37.960;2024-01-06T03:14:03;0.10;;;0.05;;
82811;SDS011;72567;55.696;37.960;2024-01-06T03:17:04;3.83;;;2.03;;
82811;SDS011;72567;55.696;37.960;2024-01-06T03:20:05;3.05;;;2.03;;
82811;SDS011;72567;55.696;37.960;2024-01-06T03:23:06;3.63;;;1.38;;
82811;SDS011;72567;55.696;37.960;2024-01-06T03:26:07;2.33;;;1.50;;
82811;SDS011;72567;55.696;37.960;2024-01-06T03:29:07;1.45;;;1.17;;
82811;SDS011;72567;55.696;37.960;2024-01-06T03:32:08;0.20;;;0.20;;
82811;SDS011;72567;55.696;37.960;2024-01-06T03:35:08;1.55;;;1.15;;
82811;SDS011;72567;55.696;37.960;2024-01-06T03:38:09;1.10;;;0.85;;
82811;SDS011;72567;55.696;37.960;2024-01-06T03:41:09;0.70;;;0.70;;
82811;SDS011;72567;55.696;37.960;2024-01-06T03:44:10;0.50;;;0.50;;
82811;SDS011;72567;55.696;37.960;2024-01-06T03:47:10;1.20;;;1.13;;
82811;SDS011;72567;55.696;37.960;2024-01-06T03:50:11;2.30;;;0.70;;
82811;SDS011;72567;55.696;37.960;2024-01-06T03:53:13;2.17;;;2.03;;
82811;SDS011;72567;55.696;37.960;2024-01-06T03:56:13;0.98;;;0.90;;
82811;SDS011;72567;55.696;37.960;2024-01-06T03:59:14;2.65;;;1.77;;
82811;SDS011;72567;55.696;37.960;2024-01-06T04:02:14;0.52;;;0.50;;
82811;SDS011;72567;55.696;37.960;2024-01-06T04:05:15;5.03;;;2.38;;
82811;SDS011;72567;55.696;37.960;2024-01-06T04:08:15;1.20;;;0.50;;
82811;SDS011;72567;55.696;37.960;2024-01-06T04:11:17;6.78;;;2.22;;
82811;SDS011;72567;55.696;37.960;2024-01-06T04:14:18;1.67;;;1.58;;
82811;SDS011;72567;55.696;37.960;2024-01-06T04:17:18;1.55;;;0.90;;
82811;SDS011;72567;55.696;37.960;2024-01-06T04:20:19;1.27;;;0.43;;
82811;SDS011;72567;55.696;37.960;2024-01-06T04:23:19;1.10;;;1.00;;
82811;SDS011;72567;55.696;37.960;2024-01-06T04:26:20;3.60;;;1.95;;
82811;SDS011;72567;55.696;37.960;2024-01-06T04:29:21;0.45;;;0.45;;
82811;SDS011;72567;55.696;37.960;2024-01-06T04:32:21;0.00;;;0.00;;
82811;SDS011;72567;55.696;37.960;2024-01-06T04:35:22;6.55;;;1.77;;
82811;SDS011;72567;55.696;37.960;2024-01-06T04:41:23;3.07;;;1.13;;
82811;SDS011;72567;55.696;37.960;2024-01-06T04:44:24;0.85;;;0.85;;
82811;SDS011;72567;55.696;37.960;2024-01-06T04:47:24;2.97;;;2.67;;
82811;SDS011;72567;55.696;37.960;2024-01-06T04:50:25;7.18;;;3.47;;
82811;SDS011;72567;55.696;37.960;2024-01-06T04:53:26;0.25;;;0.25;;
82811;SDS011;72567;55.696;37.960;2024-01-06T04:56:26;1.00;;;0.65;;
82811;SDS011;72567;55.696;37.960;2024-01-06T04:59:27;0.30;;;0.30;;
82811;SDS011;72567;55.696;37.960;2024-01-06T05:02:27;0.20;;;0.15;;
82811;SDS011;72567;55.696;37.960;2024-01-06T05:05:28;4.25;;;1.70;;
82811;SDS011;72567;55.696;37.960;2024-01-06T05:08:28;0.43;;;0.38;;
82811;SDS011;72567;55.696;37.960;2024-01-06T05:11:31;0.93;;;0.80;;
82811;SDS011;72567;55.696;37.960;2024-01-06T05:14:31;1.20;;;0.77;;
82811;SDS011;72567;55.696;37.960;2024-01-06T05:17:32;0.98;;;0.65;;
82811;SDS011;72567;55.696;37.960;2024-01-06T05:20:32;1.15;;;0.88;;
82811;SDS011;72567;55.696;37.960;2024-01-06T05:23:33;2.92;;;1.58;;
82811;SDS011;72567;55.696;37.960;2024-01-06T05:26:33;0.20;;;0.20;;
82811;SDS011;72567;55.696;37.960;2024-01-06T05:29:34;0.10;;;0.10;;
82811;SDS011;72567;55.696;37.960;2024-01-06T05:32:34;4.13;;;2.70;;
82811;SDS011;72567;55.696;37.960;2024-01-06T05:35:35;0.85;;;0.73;;
82811;SDS011;72567;55.696;37.960;2024-01-06T05:38:38;0.63;;;0.45;;
82811;SDS011;72567;55.696;37.960;2024-01-06T05:41:39;0.50;;;0.47;;
82811;SDS011;72567;55.696;37.960;2024-01-06T05:47:41;1.15;;;1.05;;
82811;SDS011;72567;55.696;37.960;2024-01-06T05:50:41;0.32;;;0.30;;
82811;SDS011;72567;55.696;37.960;2024-01-06T05:53:42;0.70;;;0.38;;
82811;SDS011;72567;55.696;37.960;2024-01-06T05:56:42;0.43;;;0.43;;
82811;SDS011;72567;55.696;37.960;2024-01-06T05:59:43;2.30;;;2.10;;
82811;SDS011;72567;55.696;37.960;2024-01-06T06:02:44;1.88;;;0.47;;
82811;SDS011;72567;55.696;37.960;2024-01-06T06:05:44;6.45;;;6.00;;
82811;SDS011;72567;55.696;37.960;2024-01-06T06:08:45;0.10;;;0.10;;
82811;SDS011;72567;55.696;37.960;2024-01-06T06:11:46;3.35;;;1.48;;
82811;SDS011;72567;55.696;37.960;2024-01-06T06:14:46;0.00;;;0.00;;
82811;SDS011;72567;55.696;37.960;2024-01-06T06:17:47;0.85;;;0.85;;
82811;SDS011;72567;55.696;37.960;2024-01-06T06:20:47;1.98;;;1.23;;
82811;SDS011;72567;55.696;37.960;2024-01-06T06:23:48;0.10;;;0.10;;
82811;SDS011;72567;55.696;37.960;2024-01-06T06:26:49;1.35;;;1.08;;
82811;SDS011;72567;55.696;37.960;2024-01-06T06:29:49;5.05;;;1.75;;
82811;SDS011;72567;55.696;37.960;2024-01-06T06:32:50;1.05;;;0.98;;
82811;SDS011;72567;55.696;37.960;2024-01-06T06:35:50;0.20;;;0.20;;
82811;SDS011;72567;55.696;37.960;2024-01-06T06:38:51;0.28;;;0.28;;
82811;SDS011;72567;55.696;37.960;2024-01-06T06:41:52;0.32;;;0.30;;
82811;SDS011;72567;55.696;37.960;2024-01-06T06:44:52;1.10;;;1.02;;
82811;SDS011;72567;55.696;37.960;2024-01-06T06:47:53;0.45;;;0.40;;
82811;SDS011;72567;55.696;37.960;2024-01-06T06:50:53;4.43;;;3.33;;
82811;SDS011;72567;55.696;37.960;2024-01-06T06:53:54;1.60;;;1.50;;
82811;SDS011;72567;55.696;37.960;2024-01-06T06:56:54;2.28;;;1.95;;
82811;SDS011;72567;55.696;37.960;2024-01-06T06:59:55;1.75;;;1.65;;
82811;SDS011;72567;55.696;37.960;2024-01-06T07:02:55;2.72;;;1.23;;
82811;SDS011;72567;55.696;37.960;2024-01-06T07:05:57;2.05;;;1.85;;
82811;SDS011;72567;55.696;37.960;2024-01-06T07:08:57;1.20;;;0.70;;
82811;SDS011;72567;55.696;37.960;2024-01-06T07:11:58;4.82;;;4.43;;
82811;SDS011;72567;55.696;37.960;2024-01-06T07:14:58;5.05;;;2.58;;
82811;SDS011;72567;55.696;37.960;2024-01-06T07:17:59;1.75;;;1.30;;
82811;SDS011;72567;55.696;37.960;2024-01-06T07:20:59;0.55;;;0.55;;
82811;SDS011;72567;55.696;37.960;2024-01-06T07:24:00;0.10;;;0.10;;
82811;SDS011;72567;55.696;37.960;2024-01-06T07:30:03;1.48;;;1.17;;
82811;SDS011;72567;55.696;37.960;2024-01-06T07:33:05;1.55;;;1.45;;
82811;SDS011;72567;55.696;37.960;2024-01-06T07:36:06;1.65;;;1.25;;
82811;SDS011;72567;55.696;37.960;2024-01-06T07:39:07;1.13;;;0.90;;
82811;SDS011;72567;55.696;37.960;2024-01-06T07:42:07;0.30;;;0.30;;
82811;SDS011;72567;55.696;37.960;2024-01-06T07:45:08;4.32;;;2.08;;
82811;SDS011;72567;55.696;37.960;2024-01-06T07:48:09;0.32;;;0.32;;
82811;SDS011;72567;55.696;37.960;2024-01-06T07:51:09;3.53;;;1.92;;
82811;SDS011;72567;55.696;37.960;2024-01-06T07:54:10;1.25;;;0.73;;
82811;SDS011;72567;55.696;37.960;2024-01-06T07:57:11;11.27;;;4.10;;
82811;SDS011;72567;55.696;37.960;2024-01-06T08:00:13;1.35;;;1.17;;
82811;SDS011;72567;55.696;37.960;2024-01-06T08:03:16;1.33;;;1.02;;
82811;SDS011;72567;55.696;37.960;2024-01-06T08:06:17;0.93;;;0.93;;
82811;SDS011;72567;55.696;37.960;2024-01-06T08:09:17;0.10;;;0.10;;
82811;SDS011;72567;55.696;37.960;2024-01-06T08:12:18;1.77;;;0.93;;
82811;SDS011;72567;55.696;37.960;2024-01-06T08:15:18;1.30;;;0.70;;
82811;SDS011;72567;55.696;37.960;2024-01-06T08:18:19;0.88;;;0.85;;
82811;SDS011;72567;55.696;37.960;2024-01-06T08:21:21;1.65;;;1.13;;
82811;SDS011;72567;55.696;37.960;2024-01-06T08:24:21;2.25;;;1.98;;
82811;SDS011;72567;55.696;37.960;2024-01-06T08:27:22;0.15;;;0.15;;
82811;SDS011;72567;55.696;37.960;2024-01-06T08:30:24;0.90;;;0.50;;
82811;SDS011;72567;55.696;37.960;2024-01-06T08:33:24;0.28;;;0.28;;
82811;SDS011;72567;55.696;37.960;2024-01-06T08:36:25;1.80;;;1.33;;
82811;SDS011;72567;55.696;37.960;2024-01-06T08:39:25;1.67;;;0.82;;
82811;SDS011;72567;55.696;37.960;2024-01-06T08:42:26;1.75;;;0.98;;
82811;SDS011;72567;55.696;37.960;2024-01-06T08:45:27;2.05;;;0.60;;
82811;SDS011;72567;55.696;37.960;2024-01-06T08:48:27;0.10;;;0.10;;
82811;SDS011;72567;55.696;37.960;2024-01-06T08:51:28;4.22;;;1.55;;
82811;SDS011;72567;55.696;37.960;2024-01-06T08:54:29;0.65;;;0.65;;
82811;SDS011;72567;55.696;37.960;2024-01-06T08:57:29;0.03;;;0.03;;
82811;SDS011;72567;55.696;37.960;2024-01-06T09:00:30;0.50;;;0.38;;
82811;SDS011;72567;55.696;37.960;2024-01-06T09:03:31;0.00;;;0.00;;
82811;SDS011;72567;55.696;37.960;2024-01-06T09:06:31;0.32;;;0.32;;
82811;SDS011;72567;55.696;37.960;2024-01-06T09:09:32;1.42;;;1.27;;
82811;SDS011;72567;55.696;37.960;2024-01-06T09:12:32;2.65;;;1.30;;
82811;SDS011;72567;55.696;37.960;2024-01-06T09:15:33;5.65;;;1.85;;
82811;SDS011;72567;55.696;37.960;2024-01-06T09:18:33;0.35;;;0.32;;
82811;SDS011;72567;55.696;37.960;2024-01-06T09:21:34;3.70;;;1.10;;
82811;SDS011;72567;55.696;37.960;2024-01-06T09:24:35;2.03;;;1.20;;
82811;SDS011;72567;55.696;37.960;2024-01-06T09:27:36;2.47;;;1.90;;
82811;SDS011;72567;55.696;37.960;2024-01-06T09:30:36;5.10;;;3.03;;
82811;SDS011;72567;55.696;37.960;2024-01-06T09:33:37;0.43;;;0.40;;
82811;SDS011;72567;55.696;37.960;2024-01-06T09:36:38;0.80;;;0.30;;
82811;SDS011;72567;55.696;37.960;2024-01-06T09:39:39;0.32;;;0.32;;
82811;SDS011;72567;55.696;37.960;2024-01-06T09:42:40;0.40;;;0.40;;
82811;SDS011;72567;55.696;37.960;2024-01-06T09:45:40;0.50;;;0.50;;
82811;SDS011;72567;55.696;37.960;2024-01-06T09:48:41;0.30;;;0.30;;
82811;SDS011;72567;55.696;37.960;2024-01-06T09:51:42;1.63;;;1.42;;
82811;SDS011;72567;55.696;37.960;2024-01-06T09:54:45;0.05;;;0.05;;
82811;SDS011;72567;55.696;37.960;2024-01-06T09:57:48;0.65;;;0.65;;
82811;SDS011;72567;55.696;37.960;2024-01-06T10:00:49;1.25;;;1.15;;
82811;SDS011;72567;55.696;37.960;2024-01-06T10:03:50;1.13;;;1.00;;
82811;SDS011;72567;55.696;37.960;2024-01-06T10:06:50;1.02;;;0.93;;
82811;SDS011;72567;55.696;37.960;2024-01-06T10:09:51;1.48;;;1.38;;
82811;SDS011;72567;55.696;37.960;2024-01-06T10:12:55;2.58;;;1.63;;
82811;SDS011;72567;55.696;37.960;2024-01-06T10:15:56;1.25;;;0.63;;
82811;SDS011;72567;55.696;37.960;2024-01-06T10:18:56;0.00;;;0.00;;
82811;SDS011;72567;55.696;37.960;2024-01-06T10:21:57;0.50;;;0.45;;
82811;SDS011;72567;55.696;37.960;2024-01-06T10:25:02;3.92;;;2.13;;
82811;SDS011;72567;55.696;37.960;2024-01-06T10:28:04;0.28;;;0.28;;
82811;SDS011;72567;55.696;37.960;2024-01-06T10:31:05;3.40;;;2.47;;
82811;SDS011;72567;55.696;37.960;2024-01-06T10:34:08;1.65;;;1.17;;
82811;SDS011;72567;55.696;37.960;2024-01-06T10:37:09;1.73;;;1.63;;
82811;SDS011;72567;55.696;37.960;2024-01-06T10:40:10;4.25;;;3.22;;
82811;SDS011;72567;55.696;37.960;2024-01-06T10:43:12;4.50;;;2.22;;
82811;SDS011;72567;55.696;37.960;2024-01-06T10:46:12;3.83;;;2.97;;
82811;SDS011;72567;55.696;37.960;2024-01-06T10:49:16;2.15;;;1.95;;
82811;SDS011;72567;55.696;37.960;2024-01-06T10:52:17;2.50;;;0.70;;
82811;SDS011;72567;55.696;37.960;2024-01-06T10:55:18;3.88;;;2.45;;
82811;SDS011;72567;55.696;37.960;2024-01-06T10:58:20;10.20;;;5.43;;
82811;SDS011;72567;55.696;37.960;2024-01-06T11:01:22;0.63;;;0.63;;
82811;SDS011;72567;55.696;37.960;2024-01-06T11:04:24;0.13;;;0.13;;
82811;SDS011;72567;55.696;37.960;2024-01-06T11:10:29;1.27;;;0.93;;
82811;SDS011;72567;55.696;37.960;2024-01-06T11:16:34;0.70;;;0.65;;
82811;SDS011;72567;55.696;37.960;2024-01-06T11:22:36;3.00;;;2.28;;
82811;SDS011;72567;55.696;37.960;2024-01-06T11:25:40;0.63;;;0.63;;
82811;SDS011;72567;55.696;37.960;2024-01-06T11:28:47;2.38;;;0.93;;
82811;SDS011;72567;55.696;37.960;2024-01-06T11:35:20;1.13;;;1.05;;
82811;SDS011;72567;55.696;37.960;2024-01-06T11:38:21;9.10;;;6.47;;
82811;SDS011;72567;55.696;37.960;2024-01-06T11:44:44;4.35;;;3.47;;
82811;SDS011;72567;55.696;37.960;2024-01-06T11:47:50;2.42;;;1.95;;
82811;SDS011;72567;55.696;37.960;2024-01-06T11:50:55;0.47;;;0.47;;
82811;SDS011;72567;55.696;37.960;2024-01-06T11:57:15;1.13;;;0.68;;
82811;SDS011;72567;55.696;37.960;2024-01-06T12:03:16;4.28;;;0.50;;
82811;SDS011;72567;55.696;37.960;2024-01-06T12:06:19;14.70;;;6.80;;
82811;SDS011;72567;55.696;37.960;2024-01-06T12:09:21;10.60;;;4.72;;
82811;SDS011;72567;55.696;37.960;2024-01-06T12:12:24;11.05;;;4.55;;
82811;SDS011;72567;55.696;37.960;2024-01-06T12:15:25;0.30;;;0.30;;
82811;SDS011;72567;55.696;37.960;2024-01-06T12:18:26;10.73;;;4.38;;
82811;SDS011;72567;55.696;37.960;2024-01-06T12:21:27;23.20;;;5.65;;
82811;SDS011;72567;55.696;37.960;2024-01-06T12:24:28;1.90;;;1.80;;
82811;SDS011;72567;55.696;37.960;2024-01-06T12:30:29;3.53;;;2.72;;
82811;SDS011;72567;55.696;37.960;2024-01-06T12:33:31;3.30;;;1.92;;
82811;SDS011;72567;55.696;37.960;2024-01-06T12:39:40;11.45;;;8.15;;
82811;SDS011;72567;55.696;37.960;2024-01-06T12:42:43;14.30;;;5.90;;
82811;SDS011;72567;55.696;37.960;2024-01-06T12:45:43;18.88;;;8.48;;
82811;SDS011;72567;55.696;37.960;2024-01-06T12:48:44;11.13;;;5.45;;
82811;SDS011;72567;55.696;37.960;2024-01-06T12:51:45;4.85;;;2.20;;
82811;SDS011;72567;55.696;37.960;2024-01-06T12:54:45;25.27;;;10.02;;
82811;SDS011;72567;55.696;37.960;2024-01-06T12:57:46;12.75;;;6.32;;
82811;SDS011;72567;55.696;37.960;2024-01-06T13:00:46;7.22;;;4.22;;
82811;SDS011;72567;55.696;37.960;2024-01-06T13:03:47;23.02;;;11.70;;
82811;SDS011;72567;55.696;37.960;2024-01-06T13:06:48;3.67;;;1.58;;
82811;SDS011;72567;55.696;37.960;2024-01-06T13:12:49;2.17;;;1.90;;
82811;SDS011;72567;55.696;37.960;2024-01-06T13:15:50;14.27;;;5.38;;
82811;SDS011;72567;55.696;37.960;2024-01-06T13:18:51;4.18;;;2.17;;
82811;SDS011;72567;55.696;37.960;2024-01-06T13:21:52;19.30;;;8.20;;
82811;SDS011;72567;55.696;37.960;2024-01-06T13:24:53;7.22;;;4.75;;
82811;SDS011;72567;55.696;37.960;2024-01-06T13:27:53;10.35;;;4.13;;
82811;SDS011;72567;55.696;37.960;2024-01-06T13:30:54;3.95;;;2.53;;
82811;SDS011;72567;55.696;37.960;2024-01-06T13:33:54;9.35;;;3.92;;
82811;SDS011;72567;55.696;37.960;2024-01-06T13:39:57;12.43;;;5.95;;
82811;SDS011;72567;55.696;37.960;2024-01-06T13:42:58;13.60;;;7.57;;
82811;SDS011;72567;55.696;37.960;2024-01-06T13:45:58;3.97;;;2.33;;
82811;SDS011;72567;55.696;37.960;2024-01-06T13:48:59;7.13;;;3.45;;
82811;SDS011;72567;55.696;37.960;2024-01-06T13:52:00;1.58;;;1.48;;
82811;SDS011;72567;55.696;37.960;2024-01-06T13:55:01;1.23;;;1.13;;
82811;SDS011;72567;55.696;37.960;2024-01-06T13:58:02;16.95;;;6.90;;
82811;SDS011;72567;55.696;37.960;2024-01-06T14:01:03;0.80;;;0.77;;
82811;SDS011;72567;55.696;37.960;2024-01-06T14:04:03;2.97;;;2.78;;
82811;SDS011;72567;55.696;37.960;2024-01-06T14:07:05;1.80;;;1.13;;
82811;SDS011;72567;55.696;37.960;2024-01-06T14:10:06;6.65;;;3.65;;
82811;SDS011;72567;55.696;37.960;2024-01-06T14:13:07;3.83;;;2.88;;
82811;SDS011;72567;55.696;37.960;2024-01-06T14:16:07;4.15;;;3.10;;
82811;SDS011;72567;55.696;37.960;2024-01-06T14:19:08;2.05;;;1.23;;
82811;SDS011;72567;55.696;37.960;2024-01-06T14:22:08;2.38;;;1.83;;
82811;SDS011;72567;55.696;37.960;2024-01-06T14:25:09;7.38;;;2.92;;
82811;SDS011;72567;55.696;37.960;2024-01-06T14:28:09;2.42;;;1.67;;
82811;SDS011;72567;55.696;37.960;2024-01-06T14:31:10;2.83;;;1.77;;
82811;SDS011;72567;55.696;37.960;2024-01-06T14:34:11;0.30;;;0.30;;
82811;SDS011;72567;55.696;37.960;2024-01-06T14:37:11;10.60;;;6.57;;
82811;SDS011;72567;55.696;37.960;2024-01-06T14:40:12;12.70;;;5.97;;
82811;SDS011;72567;55.696;37.960;2024-01-06T14:43:13;12.35;;;4.80;;
82811;SDS011;72567;55.696;37.960;2024-01-06T14:46:13;1.45;;;0.93;;
82811;SDS011;72567;55.696;37.960;2024-01-06T14:49:16;6.45;;;4.28;;
82811;SDS011;72567;55.696;37.960;2024-01-06T14:52:17;0.17;;;0.17;;
82811;SDS011;72567;55.696;37.960;2024-01-06T14:55:18;5.00;;;2.75;;
82811;SDS011;72567;55.696;37.960;2024-01-06T14:58:19;8.25;;;3.60;;
82811;SDS011;72567;55.696;37.960;2024-01-06T15:01:20;12.65;;;6.25;;
82811;SDS011;72567;55.696;37.960;2024-01-06T15:04:21;5.97;;;3.40;;
82811;SDS011;72567;55.696;37.960;2024-01-06T15:07:22;13.57;;;5.93;;
82811;SDS011;72567;55.696;37.960;2024-01-06T15:10:23;13.02;;;5.18;;
82811;SDS011;72567;55.696;37.960;2024-01-06T15:13:24;9.07;;;3.90;;
82811;SDS011;72567;55.696;37.960;2024-01-06T15:16:24;12.40;;;4.45;;
82811;SDS011;72567;55.696;37.960;2024-01-06T15:19:25;0.52;;;0.52;;
82811;SDS011;72567;55.696;37.960;2024-01-06T15:22:27;5.72;;;3.03;;
82811;SDS011;72567;55.696;37.960;2024-01-06T15:25:28;5.00;;;3.28;;
82811;SDS011;72567;55.696;37.960;2024-01-06T15:28:29;11.32;;;5.55;;
82811;SDS011;72567;55.696;37.960;2024-01-06T15:31:29;5.78;;;2.40;;
82811;SDS011;72567;55.696;37.960;2024-01-06T15:34:30;14.90;;;5.07;;
82811;SDS011;72567;55.696;37.960;2024-01-06T15:37:31;10.93;;;4.57;;
82811;SDS011;72567;55.696;37.960;2024-01-06T15:40:31;15.57;;;5.60;;
82811;SDS011;72567;55.696;37.960;2024-01-06T15:43:32;13.18;;;6.10;;
82811;SDS011;72567;55.696;37.960;2024-01-06T15:46:32;3.20;;;2.03;;
82811;SDS011;72567;55.696;37.960;2024-01-06T15:55:34;3.20;;;2.42;;
82811;SDS011;72567;55.696;37.960;2024-01-06T15:58:35;11.38;;;3.80;;
82811;SDS011;72567;55.696;37.960;2024-01-06T16:01:35;7.25;;;2.45;;
82811;SDS011;72567;55.696;37.960;2024-01-06T16:04:36;5.22;;;2.33;;
82811;SDS011;72567;55.696;37.960;2024-01-06T16:07:36;15.25;;;6.35;;
82811;SDS011;72567;55.696;37.960;2024-01-06T16:10:37;3.63;;;2.17;;
82811;SDS011;72567;55.696;37.960;2024-01-06T16:13:37;28.38;;;11.77;;
82811;SDS011;72567;55.696;37.960;2024-01-06T16:16:38;24.73;;;12.02;;
82811;SDS011;72567;55.696;37.960;2024-01-06T16:22:40;29.98;;;11.98;;
82811;SDS011;72567;55.696;37.960;2024-01-06T16:28:41;29.92;;;15.25;;
82811;SDS011;72567;55.696;37.960;2024-01-06T16:31:42;27.58;;;14.88;;
82811;SDS011;72567;55.696;37.960;2024-01-06T16:34:42;29.08;;;14.63;;
82811;SDS011;72567;55.696;37.960;2024-01-06T16:37:43;25.00;;;14.15;;
82811;SDS011;72567;55.696;37.960;2024-01-06T16:43:44;26.37;;;13.50;;
82811;SDS011;72567;55.696;37.960;2024-01-06T16:46:45;25.45;;;11.70;;
82811;SDS011;72567;55.696;37.960;2024-01-06T16:49:45;22.75;;;11.52;;
82811;SDS011;72567;55.696;37.960;2024-01-06T16:52:46;31.98;;;13.77;;
82811;SDS011;72567;55.696;37.960;2024-01-06T16:55:46;26.08;;;12.20;;
82811;SDS011;72567;55.696;37.960;2024-01-06T16:58:47;23.58;;;12.52;;
82811;SDS011;72567;55.696;37.960;2024-01-06T17:01:47;28.27;;;13.25;;
82811;SDS011;72567;55.696;37.960;2024-01-06T17:04:48;28.42;;;12.60;;
82811;SDS011;72567;55.696;37.960;2024-01-06T17:07:49;3.13;;;2.28;;
82811;SDS011;72567;55.696;37.960;2024-01-06T17:10:49;10.00;;;4.57;;
82811;SDS011;72567;55.696;37.960;2024-01-06T17:13:50;10.82;;;5.25;;
82811;SDS011;72567;55.696;37.960;2024-01-06T17:16:51;9.43;;;4.35;;
82811;SDS011;72567;55.696;37.960;2024-01-06T17:19:51;12.40;;;5.82;;
82811;SDS011;72567;55.696;37.960;2024-01-06T17:22:53;11.50;;;5.90;;
82811;SDS011;72567;55.696;37.960;2024-01-06T17:25:54;0.55;;;0.55;;
82811;SDS011;72567;55.696;37.960;2024-01-06T17:28:54;2.08;;;1.35;;
82811;SDS011;72567;55.696;37.960;2024-01-06T17:31:56;17.63;;;6.22;;
82811;SDS011;72567;55.696;37.960;2024-01-06T17:34:56;8.35;;;3.95;;
82811;SDS011;72567;55.696;37.960;2024-01-06T17:37:57;24.15;;;9.25;;
82811;SDS011;72567;55.696;37.960;2024-01-06T17:40:57;2.60;;;1.42;;
82811;SDS011;72567;55.696;37.960;2024-01-06T17:43:58;25.67;;;12.85;;
82811;SDS011;72567;55.696;37.960;2024-01-06T17:46:58;4.30;;;2.00;;
82811;SDS011;72567;55.696;37.960;2024-01-06T17:49:59;15.50;;;6.80;;
82811;SDS011;72567;55.696;37.960;2024-01-06T17:53:00;19.05;;;8.25;;
82811;SDS011;72567;55.696;37.960;2024-01-06T17:56:00;16.33;;;4.88;;
82811;SDS011;72567;55.696;37.960;2024-01-06T17:59:01;8.98;;;3.28;;
82811;SDS011;72567;55.696;37.960;2024-01-06T18:02:02;6.78;;;2.50;;
82811;SDS011;72567;55.696;37.960;2024-01-06T18:05:03;7.97;;;2.88;;
82811;SDS011;72567;55.696;37.960;2024-01-06T18:08:04;11.07;;;5.85;;
82811;SDS011;72567;55.696;37.960;2024-01-06T18:14:05;14.07;;;5.13;;
82811;SDS011;72567;55.696;37.960;2024-01-06T18:17:06;8.90;;;4.00;;
82811;SDS011;72567;55.696;37.960;2024-01-06T18:20:08;23.20;;;11.60;;
82811;SDS011;72567;55.696;37.960;2024-01-06T18:23:10;13.45;;;7.60;;
82811;SDS011;72567;55.696;37.960;2024-01-06T18:26:12;10.40;;;5.40;;
82811;SDS011;72567;55.696;37.960;2024-01-06T18:29:13;16.85;;;6.18;;
82811;SDS011;72567;55.696;37.960;2024-01-06T18:32:18;9.45;;;5.35;;
82811;SDS011;72567;55.696;37.960;2024-01-06T18:35:18;11.85;;;6.00;;
82811;SDS011;72567;55.696;37.960;2024-01-06T18:38:19;8.93;;;5.07;;
82811;SDS011;72567;55.696;37.960;2024-01-06T18:41:19;9.38;;;3.95;;
82811;SDS011;72567;55.696;37.960;2024-01-06T18:44:20;10.35;;;5.22;;
82811;SDS011;72567;55.696;37.960;2024-01-06T18:47:20;14.18;;;6.95;;
82811;SDS011;72567;55.696;37.960;2024-01-06T18:53:23;19.27;;;6.97;;
82811;SDS011;72567;55.696;37.960;2024-01-06T18:59:27;4.18;;;2.92;;